• Join FlightAware (Why Join?)
  • Login
  • US Flag 
11:49AM EDT


 

Airport Tracker/Info


-or-


 

Live Flight TrackerFlight Track Log ✈ N629C ✈ 14-Sep-2013 ✈ KSGR - KADS

Flight Track Log - Related Links

Times and Time Zones

All times are in EDT time to prevent confusion due to time zone crossing. See the N629C flight status page for this flight to view local times or setup timezone preferences in your user account.

Time Position Orientation Groundspeed Altitude Reporting Facility
EDT Latitude Longitude Course Direction KTS MPH feet Rate Location/Type
01:31PM 29.6058 -95.6556 46° Northeast 168 193 600  Level Houston Center
01:32PM 29.6172 -95.6422 46° Northeast 101 116 1,400 720 Climbing Houston Center
01:33PM 29.6461 -95.6497 347° North 127 146 2,000 480 Climbing Houston Center
01:34PM 29.6828 -95.6706 334° Northwest 151 174 2,400 360 Climbing Houston Center
01:34PM 29.6800 -95.6708 185° South 135 155 2,400 540 Level Houston Center
01:35PM 29.7217 -95.6853 343° North 140 161 3,000 540 Climbing Houston Center
01:35PM 29.7200 -95.6828 128° Southeast 145 167 3,000 360 Level Houston Center
01:36PM 29.7606 -95.6975 343° North 143 165 3,400 360 Climbing Houston Center
01:36PM 29.7575 -95.6964 162° South 143 165 3,400 60 Level Houston Center
01:37PM 29.7961 -95.7106 342° North 143 165 3,500 60 Climbing Houston Center
01:37PM 29.8042 -95.7142 339° North 152 175 3,500 180 Level Houston Center
01:38PM 29.8386 -95.7236 347° North 152 175 3,700 480 Climbing Houston Center
01:38PM 29.8472 -95.7283 335° Northwest 152 175 4,000 1,200 Climbing Houston Center
01:39PM 29.8817 -95.7336 352° North 139 160 5,000 1,020 Climbing Houston Center
01:40PM 29.9131 -95.7350 358° North 118 136 6,000 780 Climbing Houston Center
01:40PM 29.9075 -95.7333 165° South 118 136 5,800 960 Descending Houston Center
01:41PM 29.9425 -95.7364 356° North 108 124 7,000 1,140 Climbing Houston Center
01:41PM 29.9447 -95.7358 12° North 113 130 7,000 960 Level Houston Center
01:42PM 29.9744 -95.7422 349° North 111 128 8,000 960 Climbing Houston Center
01:42PM 29.9742 -95.7417 120° Southeast 108 124 8,000 840 Level Houston Center
01:43PM 30.0047 -95.7508 345° North 112 129 8,900 840 Climbing Houston Center
01:43PM 30.0056 -95.7497 49° Northeast 114 131 8,900 960 Level Houston Center
01:44PM 30.0389 -95.7564 350° North 122 140 9,900 840 Climbing Houston Center
01:44PM 30.0378 -95.7564 180° South 118 136 9,800 480 Descending Houston Center
01:45PM 30.0753 -95.7667 347° North 140 161 10,400 540 Climbing Houston Center
01:45PM 30.0736 -95.7647 135° Southeast 128 147 10,400 60 Level Houston Center
01:46PM 30.1169 -95.7814 342° North 158 182 10,500 60 Climbing Houston Center
01:47PM 30.1772 -95.8031 343° North 180 207 10,600  Climbing Houston Center
01:48PM 30.2225 -95.8208 341° North 180 207 10,600 -60 Level Houston Center
01:49PM 30.2708 -95.8372 344° North 181 208 10,500  Descending Houston Center
01:50PM 30.3183 -95.8547 342° North 180 207 10,600  Climbing Houston Center
01:51PM 30.3675 -95.8714 344° North 183 211 10,600  Level Houston Center
01:52PM 30.4142 -95.8889 342° North 179 206 10,600  Level Houston Center
01:53PM 30.4628 -95.9064 343° North 181 208 10,600  Level Houston Center
01:54PM 30.5094 -95.9233 343° North 178 205 10,600  Level Houston Center
01:55PM 30.5658 -95.9431 343° North 176 203 10,600  Level Houston Center
01:56PM 30.6139 -95.9597 343° North 179 206 10,600  Level Houston Center
01:57PM 30.6633 -95.9800 341° North 175 201 10,600  Level Houston Center
01:58PM 30.7094 -95.9956 344° North 178 205 10,600  Level Houston Center
01:59PM 30.7567 -96.0125 343° North 178 205 10,600  Level Houston Center
02:00PM 30.8044 -96.0300 343° North 180 207 10,600  Level Houston Center
02:01PM 30.8511 -96.0472 342° North 177 204 10,600  Level Houston Center
02:03PM 30.9058 -96.0664 343° North 181 208 10,600  Level Houston Center
02:04PM 30.9544 -96.0825 344° North 180 207 10,600  Level Houston Center
02:05PM 31.0011 -96.1008 341° North 177 204 10,600  Level Houston Center
02:06PM 31.0500 -96.1175 344° North 180 207 10,600  Level Houston Center
02:07PM 31.0978 -96.1358 342° North 180 207 10,600  Level Houston Center
02:08PM 31.1456 -96.1533 343° North 180 207 10,600  Level Houston Center
02:09PM 31.1942 -96.1714 342° North 181 208 10,600  Level Houston Center
02:10PM 31.2433 -96.1889 343° North 181 208 10,600  Level Houston Center
02:11PM 31.2903 -96.2072 342° North 178 205 10,600  Level Houston Center
02:12PM 31.3464 -96.2267 344° North 177 204 10,600  Level Houston Center
02:13PM 31.3939 -96.2447 342° North 178 205 10,600  Level Houston Center
02:14PM 31.4414 -96.2633 342° North 178 205 10,600  Level Houston Center
02:15PM 31.4892 -96.2792 344° North 178 205 10,600  Level Houston Center
02:16PM 31.5375 -96.2981 342° North 180 207 10,600  Level Houston Center
02:17PM 31.5856 -96.3147 344° North 179 206 10,600  Level Houston Center
02:18PM 31.6336 -96.3339 341° North 181 208 10,600  Level Houston Center
02:19PM 31.6642 -96.3450 343° North 180 207 10,600  Level Fort Worth Center
02:20PM 31.7167 -96.3647 342° North 176 203 10,600  Level Fort Worth Center
02:21PM 31.7639 -96.3833 341° North 178 205 10,600  Level Fort Worth Center
02:22PM 31.8114 -96.4000 343° North 178 205 10,600  Level Fort Worth Center
02:23PM 31.8592 -96.4169 343° North 178 205 10,600  Level Fort Worth Center
02:24PM 31.9064 -96.4347 342° North 178 205 10,600 -60 Level Fort Worth Center
02:25PM 31.9628 -96.4556 343° North 179 206 10,500  Descending Fort Worth Center
02:26PM 32.0103 -96.4739 342° North 179 206 10,600  Climbing Fort Worth Center
02:27PM 32.0578 -96.4911 343° North 178 205 10,600  Level Fort Worth Center
02:28PM 32.1058 -96.5103 341° North 179 206 10,600 -60 Level Fort Worth Center
02:29PM 32.1531 -96.5264 344° North 178 205 10,500 -60 Descending Fort Worth Center
02:30PM 32.2006 -96.5447 342° North 178 205 10,500 -420 Level Fort Worth Center
02:31PM 32.2578 -96.5661 342° North 184 212 9,700 -720 Descending Fort Worth Center
02:32PM 32.3058 -96.5842 342° North 181 208 9,100 -600 Descending Fort Worth Center
02:33PM 32.3586 -96.5978 348° North 180 207 8,500 -600 Descending Fort Worth Center
02:34PM 32.4078 -96.6075 351° North 180 207 7,900 -600 Descending Fort Worth Center
02:35PM 32.4608 -96.6194 349° North 180 207 7,300 -540 Descending Fort Worth Center
02:36PM 32.5094 -96.6278 352° North 178 205 6,800 -540 Descending Fort Worth Center
02:37PM 32.5575 -96.6358 352° North 175 201 6,200 -600 Descending Fort Worth Center
02:38PM 32.6103 -96.6447 352° North 178 205 5,600 -660 Descending Fort Worth Center
02:39PM 32.6500 -96.6500 354° North 176 203 5,000 -660 Descending Dallas / Fort Worth TRACON
02:40PM 32.7000 -96.6500 360° North 175 201 4,500 -660 Descending Dallas / Fort Worth TRACON
02:41PM 32.7333 -96.6667 337° Northwest 176 203 3,900 -600 Descending Dallas / Fort Worth TRACON
02:42PM 32.7833 -96.6833 344° North 160 184 3,400 -540 Descending Dallas / Fort Worth TRACON
02:43PM 32.8167 -96.7000 337° Northwest 159 183 2,900 -420 Descending Dallas / Fort Worth TRACON
02:44PM 32.8500 -96.7333 320° Northwest 148 170 2,600 -240 Descending Dallas / Fort Worth TRACON
02:45PM 32.9000 -96.7667 331° Northwest 149 171 2,500 -60 Descending Dallas / Fort Worth TRACON
02:46PM 32.9333 -96.7833 337° Northwest 143 165 2,500  Level Dallas / Fort Worth TRACON
02:47PM 32.9667 -96.8167 320° Northwest 140 161 2,500 -420 Level Dallas / Fort Worth TRACON
02:48PM 33.0000 -96.8333 337° Northwest 133 153 1,700 -840 Descending Dallas / Fort Worth TRACON
02:49PM 32.9833 -96.8500 220° Southwest 108 124 900 -840 Descending Dallas / Fort Worth TRACON
02:52PM 32.9667 -96.8333 140° Southeast  Level FlightAware Approximate
02:59PM 32.9686 -96.8364 140° Southeast  Level Estimated